Fort Davis, TX (79734)

3:40 PM CDT on July 26, 2016 (GMT -0500)
FA Ranch Limpia Crossing | | Change Station

Elev 5262 ft 30.62 °N, 103.97 °W | Updated 1 minute ago

Scattered Clouds
Scattered Clouds
88.9 °F
Feels Like 87 °F
N
12.5
Wind Variable Wind from ESE

Today
High -- | Low -- °F
--% Chance of Precip.
Yesterday
High -- | Low -- °F
Precip. -- in
Pressure 29.94 in
Visibility 10.0 miles
Clouds Scattered Clouds 7500 ft
Heat Index 87 °F
Dew Point 53 °F
Humidity 30%
Rainfall 0.00 in
Snow Depth Not available.
7:10 AM 8:53 PM
Waning Gibbous, 51% visible
METAR KMRF 261956Z AUTO 08013G18KT 10SM SCT075 32/13 A3014 RMK AO2 SLP136 T03220128
Pressure 29.94 in
Visibility 10.0 miles
Clouds Scattered Clouds 7500 ft
Heat Index 87 °F
Dew Point 53 °F
Humidity 30%
Rainfall 0.00 in
Snow Depth Not available.
7:10 AM 8:53 PM
Waning Gibbous, 51% visible
METAR KMRF 261956Z AUTO 08013G18KT 10SM SCT075 32/13 A3014 RMK AO2 SLP136 T03220128

10-Day Weather Forecast

Almanac

Astronomy

Jul. 26, 2016 Rise Set
Actual Time
Civil Twilight
Nautical Twilight
Astronomical Twilight
Moon
Length of Visible Light
Length of Day
Tomorrow will be .
, % of the Moon is Illuminated

Today's Extremes

State Highs State Lows

Community

WunderPhotos

Upload Photos

1,927,678 photos uploaded!

WunderBlog® & News

Nearby

Air Quality

  Air Quality AQ Index Pollutant
Not available.

Snow Depth

Station Depth Elevation

Earthquake Activity

City Distance Mag. Time & Date
Minimum magnitude displayed is 2.5.

Coastal Water Temperatures

Place Temperature

Stations

Nearby Weather Stations

Station Location Temp. Windchill Dew Point Humidity Wind Precip. Elev Updated Type
                   

Watches & Warnings

There are currently no watches in effect.